sensor_id;sensor_type;location;lat;lon;timestamp;temperature;humidity
20141;DHT22;10231;47.702;9.826;2022-11-12T00:00:27;5.70;99.90
20141;DHT22;10231;47.702;9.826;2022-11-12T00:02:52;5.60;99.90
20141;DHT22;10231;47.702;9.826;2022-11-12T00:05:18;5.60;99.90
20141;DHT22;10231;47.702;9.826;2022-11-12T00:07:43;5.70;99.90
20141;DHT22;10231;47.702;9.826;2022-11-12T00:10:09;5.70;99.90
20141;DHT22;10231;47.702;9.826;2022-11-12T00:12:35;5.70;99.90
20141;DHT22;10231;47.702;9.826;2022-11-12T00:15:00;5.70;99.90
20141;DHT22;10231;47.702;9.826;2022-11-12T00:17:26;5.70;99.90
20141;DHT22;10231;47.702;9.826;2022-11-12T00:19:52;5.70;99.90
20141;DHT22;10231;47.702;9.826;2022-11-12T00:22:19;5.70;99.90
20141;DHT22;10231;47.702;9.826;2022-11-12T00:24:44;5.70;99.90
20141;DHT22;10231;47.702;9.826;2022-11-12T00:27:10;5.70;99.90
20141;DHT22;10231;47.702;9.826;2022-11-12T00:29:36;5.70;99.90
20141;DHT22;10231;47.702;9.826;2022-11-12T00:32:04;5.70;99.90
20141;DHT22;10231;47.702;9.826;2022-11-12T00:34:29;5.70;99.90
20141;DHT22;10231;47.702;9.826;2022-11-12T00:36:55;5.70;99.90
20141;DHT22;10231;47.702;9.826;2022-11-12T00:39:21;5.70;99.90
20141;DHT22;10231;47.702;9.826;2022-11-12T00:41:46;5.70;99.90
20141;DHT22;10231;47.702;9.826;2022-11-12T00:44:12;5.70;99.90
20141;DHT22;10231;47.702;9.826;2022-11-12T00:46:38;5.70;99.90
20141;DHT22;10231;47.702;9.826;2022-11-12T00:49:03;5.70;99.90
20141;DHT22;10231;47.702;9.826;2022-11-12T00:51:29;5.70;99.90
20141;DHT22;10231;47.702;9.826;2022-11-12T00:53:54;5.70;99.90
20141;DHT22;10231;47.702;9.826;2022-11-12T00:56:20;5.70;99.90
20141;DHT22;10231;47.702;9.826;2022-11-12T00:58:45;5.70;99.90
20141;DHT22;10231;47.702;9.826;2022-11-12T01:01:12;5.70;99.90
20141;DHT22;10231;47.702;9.826;2022-11-12T01:03:39;5.70;99.90
20141;DHT22;10231;47.702;9.826;2022-11-12T01:06:08;5.70;99.90
20141;DHT22;10231;47.702;9.826;2022-11-12T01:08:34;5.70;99.90
20141;DHT22;10231;47.702;9.826;2022-11-12T01:11:10;5.80;99.90
20141;DHT22;10231;47.702;9.826;2022-11-12T01:13:38;5.80;99.90
20141;DHT22;10231;47.702;9.826;2022-11-12T01:16:09;5.80;99.90
20141;DHT22;10231;47.702;9.826;2022-11-12T01:18:35;5.70;99.90
20141;DHT22;10231;47.702;9.826;2022-11-12T01:21:05;5.70;99.90
20141;DHT22;10231;47.702;9.826;2022-11-12T01:23:33;5.70;99.90
20141;DHT22;10231;47.702;9.826;2022-11-12T01:26:03;5.70;99.90
20141;DHT22;10231;47.702;9.826;2022-11-12T01:28:29;5.70;99.90
20141;DHT22;10231;47.702;9.826;2022-11-12T01:30:54;5.70;99.90
20141;DHT22;10231;47.702;9.826;2022-11-12T01:33:20;5.70;99.90
20141;DHT22;10231;47.702;9.826;2022-11-12T01:35:45;5.70;99.90
20141;DHT22;10231;47.702;9.826;2022-11-12T01:38:11;5.80;99.90
20141;DHT22;10231;47.702;9.826;2022-11-12T01:40:36;5.80;99.90
20141;DHT22;10231;47.702;9.826;2022-11-12T01:43:02;5.80;99.90
20141;DHT22;10231;47.702;9.826;2022-11-12T01:45:28;5.90;99.90
20141;DHT22;10231;47.702;9.826;2022-11-12T01:47:54;5.90;99.90
20141;DHT22;10231;47.702;9.826;2022-11-12T01:50:28;5.80;99.90
20141;DHT22;10231;47.702;9.826;2022-11-12T01:52:58;5.80;99.90
20141;DHT22;10231;47.702;9.826;2022-11-12T01:55:29;5.90;99.90
20141;DHT22;10231;47.702;9.826;2022-11-12T01:58:08;5.90;99.90
20141;DHT22;10231;47.702;9.826;2022-11-12T02:00:35;5.90;99.90
20141;DHT22;10231;47.702;9.826;2022-11-12T02:03:03;5.80;99.90
20141;DHT22;10231;47.702;9.826;2022-11-12T02:05:30;5.90;99.90
20141;DHT22;10231;47.702;9.826;2022-11-12T02:07:58;5.90;99.90
20141;DHT22;10231;47.702;9.826;2022-11-12T02:10:24;5.80;99.90
20141;DHT22;10231;47.702;9.826;2022-11-12T02:12:52;5.80;99.90
20141;DHT22;10231;47.702;9.826;2022-11-12T02:15:38;5.80;99.90
20141;DHT22;10231;47.702;9.826;2022-11-12T02:18:05;5.80;99.90
20141;DHT22;10231;47.702;9.826;2022-11-12T02:20:35;5.80;99.90
20141;DHT22;10231;47.702;9.826;2022-11-12T02:23:01;5.90;99.90
20141;DHT22;10231;47.702;9.826;2022-11-12T02:25:27;6.00;99.90
20141;DHT22;10231;47.702;9.826;2022-11-12T02:27:55;6.00;99.90
20141;DHT22;10231;47.702;9.826;2022-11-12T02:30:32;5.90;99.90
20141;DHT22;10231;47.702;9.826;2022-11-12T02:32:58;6.00;99.90
20141;DHT22;10231;47.702;9.826;2022-11-12T02:35:24;6.00;99.90
20141;DHT22;10231;47.702;9.826;2022-11-12T02:37:50;5.90;99.90
20141;DHT22;10231;47.702;9.826;2022-11-12T02:40:16;5.90;99.90
20141;DHT22;10231;47.702;9.826;2022-11-12T02:42:41;5.90;99.90
20141;DHT22;10231;47.702;9.826;2022-11-12T02:45:07;5.90;99.90
20141;DHT22;10231;47.702;9.826;2022-11-12T02:47:33;5.90;99.90
20141;DHT22;10231;47.702;9.826;2022-11-12T02:49:58;5.90;99.90
20141;DHT22;10231;47.702;9.826;2022-11-12T02:52:24;6.00;99.90
20141;DHT22;10231;47.702;9.826;2022-11-12T02:54:49;5.90;99.90
20141;DHT22;10231;47.702;9.826;2022-11-12T02:57:15;5.90;99.90
20141;DHT22;10231;47.702;9.826;2022-11-12T02:59:40;6.00;99.90
20141;DHT22;10231;47.702;9.826;2022-11-12T03:02:06;6.00;99.90
20141;DHT22;10231;47.702;9.826;2022-11-12T03:04:32;6.00;99.90
20141;DHT22;10231;47.702;9.826;2022-11-12T03:06:57;6.00;99.90
20141;DHT22;10231;47.702;9.826;2022-11-12T03:09:23;6.00;99.90
20141;DHT22;10231;47.702;9.826;2022-11-12T03:11:48;6.10;99.90
20141;DHT22;10231;47.702;9.826;2022-11-12T03:14:14;6.00;99.90
20141;DHT22;10231;47.702;9.826;2022-11-12T03:16:39;6.00;99.90
20141;DHT22;10231;47.702;9.826;2022-11-12T03:19:05;6.00;99.90
20141;DHT22;10231;47.702;9.826;2022-11-12T03:21:30;6.00;99.90
20141;DHT22;10231;47.702;9.826;2022-11-12T03:23:56;6.00;99.90
20141;DHT22;10231;47.702;9.826;2022-11-12T03:26:22;6.00;99.90
20141;DHT22;10231;47.702;9.826;2022-11-12T03:28:49;6.00;99.90
20141;DHT22;10231;47.702;9.826;2022-11-12T03:31:15;6.00;99.90
20141;DHT22;10231;47.702;9.826;2022-11-12T03:33:41;6.10;99.90
20141;DHT22;10231;47.702;9.826;2022-11-12T03:36:06;6.00;99.90
20141;DHT22;10231;47.702;9.826;2022-11-12T03:38:32;6.10;99.90
20141;DHT22;10231;47.702;9.826;2022-11-12T03:40:57;6.10;99.90
20141;DHT22;10231;47.702;9.826;2022-11-12T03:43:23;6.00;99.90
20141;DHT22;10231;47.702;9.826;2022-11-12T03:45:49;6.10;99.90
20141;DHT22;10231;47.702;9.826;2022-11-12T03:48:14;6.10;99.90
20141;DHT22;10231;47.702;9.826;2022-11-12T03:50:40;6.10;99.90
20141;DHT22;10231;47.702;9.826;2022-11-12T03:53:05;6.10;99.90
20141;DHT22;10231;47.702;9.826;2022-11-12T03:55:31;6.10;99.90
20141;DHT22;10231;47.702;9.826;2022-11-12T03:57:57;6.00;99.90
20141;DHT22;10231;47.702;9.826;2022-11-12T04:00:25;6.00;99.90
20141;DHT22;10231;47.702;9.826;2022-11-12T04:02:51;6.10;99.90
20141;DHT22;10231;47.702;9.826;2022-11-12T04:05:18;6.10;99.90
20141;DHT22;10231;47.702;9.826;2022-11-12T04:08:05;6.10;99.90
20141;DHT22;10231;47.702;9.826;2022-11-12T04:10:49;6.00;99.90
20141;DHT22;10231;47.702;9.826;2022-11-12T04:13:15;6.00;99.90
20141;DHT22;10231;47.702;9.826;2022-11-12T04:18:38;6.10;99.90
20141;DHT22;10231;47.702;9.826;2022-11-12T04:21:51;6.00;99.90
20141;DHT22;10231;47.702;9.826;2022-11-12T04:24:35;6.00;99.90
20141;DHT22;10231;47.702;9.826;2022-11-12T04:27:28;6.10;99.90
20141;DHT22;10231;47.702;9.826;2022-11-12T04:29:54;6.10;99.90
20141;DHT22;10231;47.702;9.826;2022-11-12T04:32:51;6.20;99.90
20141;DHT22;10231;47.702;9.826;2022-11-12T04:35:19;6.10;99.90
20141;DHT22;10231;47.702;9.826;2022-11-12T04:37:45;6.10;99.90
20141;DHT22;10231;47.702;9.826;2022-11-12T04:40:38;6.10;99.90
20141;DHT22;10231;47.702;9.826;2022-11-12T04:43:22;6.20;99.90
20141;DHT22;10231;47.702;9.826;2022-11-12T04:46:06;6.20;99.90
20141;DHT22;10231;47.702;9.826;2022-11-12T04:48:31;6.10;99.90
20141;DHT22;10231;47.702;9.826;2022-11-12T04:51:04;6.10;99.90
20141;DHT22;10231;47.702;9.826;2022-11-12T04:53:49;6.10;99.90
20141;DHT22;10231;47.702;9.826;2022-11-12T04:56:15;6.10;99.90
20141;DHT22;10231;47.702;9.826;2022-11-12T04:58:40;6.10;99.90
20141;DHT22;10231;47.702;9.826;2022-11-12T05:01:06;6.10;99.90
20141;DHT22;10231;47.702;9.826;2022-11-12T05:03:31;6.10;99.90
20141;DHT22;10231;47.702;9.826;2022-11-12T05:06:04;6.10;99.90
20141;DHT22;10231;47.702;9.826;2022-11-12T05:08:53;6.20;99.90
20141;DHT22;10231;47.702;9.826;2022-11-12T05:11:19;6.20;99.90
20141;DHT22;10231;47.702;9.826;2022-11-12T05:13:44;6.20;99.90
20141;DHT22;10231;47.702;9.826;2022-11-12T05:16:10;6.20;99.90
20141;DHT22;10231;47.702;9.826;2022-11-12T05:18:35;6.20;99.90
20141;DHT22;10231;47.702;9.826;2022-11-12T05:21:01;6.20;99.90
20141;DHT22;10231;47.702;9.826;2022-11-12T05:23:46;6.20;99.90
20141;DHT22;10231;47.702;9.826;2022-11-12T05:26:12;6.20;99.90
20141;DHT22;10231;47.702;9.826;2022-11-12T05:28:37;6.20;99.90
20141;DHT22;10231;47.702;9.826;2022-11-12T05:31:03;6.20;99.90
20141;DHT22;10231;47.702;9.826;2022-11-12T05:33:28;6.20;99.90
20141;DHT22;10231;47.702;9.826;2022-11-12T05:35:57;6.20;99.90
20141;DHT22;10231;47.702;9.826;2022-11-12T05:38:22;6.10;99.90
20141;DHT22;10231;47.702;9.826;2022-11-12T05:40:48;6.50;99.90
20141;DHT22;10231;47.702;9.826;2022-11-12T05:43:13;6.20;99.90
20141;DHT22;10231;47.702;9.826;2022-11-12T05:45:42;6.10;99.90
20141;DHT22;10231;47.702;9.826;2022-11-12T05:48:07;6.10;99.90
20141;DHT22;10231;47.702;9.826;2022-11-12T05:50:33;6.10;99.90
20141;DHT22;10231;47.702;9.826;2022-11-12T05:52:58;6.10;99.90
20141;DHT22;10231;47.702;9.826;2022-11-12T05:55:24;6.10;99.90
20141;DHT22;10231;47.702;9.826;2022-11-12T05:57:50;6.10;99.90
20141;DHT22;10231;47.702;9.826;2022-11-12T06:00:16;6.10;99.90
20141;DHT22;10231;47.702;9.826;2022-11-12T06:02:41;6.10;99.90
20141;DHT22;10231;47.702;9.826;2022-11-12T06:05:08;6.20;99.90
20141;DHT22;10231;47.702;9.826;2022-11-12T06:07:33;6.10;99.90
20141;DHT22;10231;47.702;9.826;2022-11-12T06:09:59;6.20;99.90
20141;DHT22;10231;47.702;9.826;2022-11-12T06:12:24;6.20;99.90
20141;DHT22;10231;47.702;9.826;2022-11-12T06:14:50;6.20;99.90
20141;DHT22;10231;47.702;9.826;2022-11-12T06:17:16;6.20;99.90
20141;DHT22;10231;47.702;9.826;2022-11-12T06:19:41;6.20;99.90
20141;DHT22;10231;47.702;9.826;2022-11-12T06:22:07;6.20;99.90
20141;DHT22;10231;47.702;9.826;2022-11-12T06:24:32;6.20;99.90
20141;DHT22;10231;47.702;9.826;2022-11-12T06:26:58;6.30;99.90
20141;DHT22;10231;47.702;9.826;2022-11-12T06:29:23;6.20;99.90
20141;DHT22;10231;47.702;9.826;2022-11-12T06:31:49;6.30;99.90
20141;DHT22;10231;47.702;9.826;2022-11-12T06:34:14;6.30;99.90
20141;DHT22;10231;47.702;9.826;2022-11-12T06:36:40;6.30;99.90
20141;DHT22;10231;47.702;9.826;2022-11-12T06:39:05;6.20;99.90
20141;DHT22;10231;47.702;9.826;2022-11-12T06:41:31;6.20;99.90
20141;DHT22;10231;47.702;9.826;2022-11-12T06:43:56;6.20;99.90
20141;DHT22;10231;47.702;9.826;2022-11-12T06:46:22;6.30;99.90
20141;DHT22;10231;47.702;9.826;2022-11-12T06:48:47;6.30;99.90
20141;DHT22;10231;47.702;9.826;2022-11-12T06:51:18;6.20;99.90
20141;DHT22;10231;47.702;9.826;2022-11-12T06:53:45;6.20;99.90
20141;DHT22;10231;47.702;9.826;2022-11-12T06:56:11;6.20;99.90
20141;DHT22;10231;47.702;9.826;2022-11-12T06:58:37;6.30;99.90
20141;DHT22;10231;47.702;9.826;2022-11-12T07:01:12;6.30;99.90
20141;DHT22;10231;47.702;9.826;2022-11-12T07:03:38;6.30;99.90
20141;DHT22;10231;47.702;9.826;2022-11-12T07:06:06;6.30;99.90
20141;DHT22;10231;47.702;9.826;2022-11-12T07:08:32;6.30;99.90
20141;DHT22;10231;47.702;9.826;2022-11-12T07:10:58;6.30;99.90
20141;DHT22;10231;47.702;9.826;2022-11-12T07:13:24;6.40;99.90
20141;DHT22;10231;47.702;9.826;2022-11-12T07:15:49;6.30;99.90
20141;DHT22;10231;47.702;9.826;2022-11-12T07:18:15;6.30;99.90
20141;DHT22;10231;47.702;9.826;2022-11-12T07:20:40;6.30;99.90
20141;DHT22;10231;47.702;9.826;2022-11-12T07:23:06;6.30;99.90
20141;DHT22;10231;47.702;9.826;2022-11-12T07:25:31;6.30;99.90
20141;DHT22;10231;47.702;9.826;2022-11-12T07:27:57;6.30;99.90
20141;DHT22;10231;47.702;9.826;2022-11-12T07:30:22;6.40;99.90
20141;DHT22;10231;47.702;9.826;2022-11-12T07:32:48;6.30;99.90
20141;DHT22;10231;47.702;9.826;2022-11-12T07:35:14;6.40;99.90
20141;DHT22;10231;47.702;9.826;2022-11-12T07:37:39;6.30;99.90
20141;DHT22;10231;47.702;9.826;2022-11-12T07:40:05;6.40;99.90
20141;DHT22;10231;47.702;9.826;2022-11-12T07:42:32;6.30;99.90
20141;DHT22;10231;47.702;9.826;2022-11-12T07:44:57;6.40;99.90
20141;DHT22;10231;47.702;9.826;2022-11-12T07:47:23;6.40;99.90
20141;DHT22;10231;47.702;9.826;2022-11-12T07:49:49;6.30;99.90
20141;DHT22;10231;47.702;9.826;2022-11-12T07:52:14;6.40;99.90
20141;DHT22;10231;47.702;9.826;2022-11-12T07:54:40;6.40;99.90
20141;DHT22;10231;47.702;9.826;2022-11-12T07:57:05;6.40;99.90
20141;DHT22;10231;47.702;9.826;2022-11-12T07:59:31;6.40;99.90
20141;DHT22;10231;47.702;9.826;2022-11-12T08:01:56;6.40;99.90
20141;DHT22;10231;47.702;9.826;2022-11-12T08:04:22;6.40;99.90
20141;DHT22;10231;47.702;9.826;2022-11-12T08:06:47;6.40;99.90
20141;DHT22;10231;47.702;9.826;2022-11-12T08:09:13;6.40;99.90
20141;DHT22;10231;47.702;9.826;2022-11-12T08:11:39;6.40;99.90
20141;DHT22;10231;47.702;9.826;2022-11-12T08:14:06;6.40;99.90
20141;DHT22;10231;47.702;9.826;2022-11-12T08:16:32;6.40;99.90
20141;DHT22;10231;47.702;9.826;2022-11-12T08:18:58;6.40;99.90
20141;DHT22;10231;47.702;9.826;2022-11-12T08:21:23;6.40;99.90
20141;DHT22;10231;47.702;9.826;2022-11-12T08:23:49;6.50;99.90
20141;DHT22;10231;47.702;9.826;2022-11-12T08:26:16;6.60;99.90
20141;DHT22;10231;47.702;9.826;2022-11-12T08:28:42;6.60;99.90
20141;DHT22;10231;47.702;9.826;2022-11-12T08:31:13;6.50;99.90
20141;DHT22;10231;47.702;9.826;2022-11-12T08:33:40;6.50;99.90
20141;DHT22;10231;47.702;9.826;2022-11-12T08:36:08;6.50;99.90
20141;DHT22;10231;47.702;9.826;2022-11-12T08:38:34;6.60;99.90
20141;DHT22;10231;47.702;9.826;2022-11-12T08:41:01;6.60;99.90
20141;DHT22;10231;47.702;9.826;2022-11-12T08:43:27;6.60;99.90
20141;DHT22;10231;47.702;9.826;2022-11-12T08:45:52;6.60;99.90
20141;DHT22;10231;47.702;9.826;2022-11-12T08:48:18;6.60;99.90
20141;DHT22;10231;47.702;9.826;2022-11-12T08:50:44;6.60;99.90
20141;DHT22;10231;47.702;9.826;2022-11-12T08:53:11;6.60;99.90
20141;DHT22;10231;47.702;9.826;2022-11-12T08:55:38;6.70;99.90
20141;DHT22;10231;47.702;9.826;2022-11-12T08:58:04;6.70;99.90
20141;DHT22;10231;47.702;9.826;2022-11-12T09:00:38;6.70;99.90
20141;DHT22;10231;47.702;9.826;2022-11-12T09:03:06;6.70;99.90
20141;DHT22;10231;47.702;9.826;2022-11-12T09:05:33;6.70;99.90
20141;DHT22;10231;47.702;9.826;2022-11-12T09:08:04;6.80;99.90
20141;DHT22;10231;47.702;9.826;2022-11-12T09:10:30;6.80;99.90
20141;DHT22;10231;47.702;9.826;2022-11-12T09:12:56;6.80;99.90
20141;DHT22;10231;47.702;9.826;2022-11-12T09:15:23;6.90;99.90
20141;DHT22;10231;47.702;9.826;2022-11-12T09:17:54;6.90;99.90
20141;DHT22;10231;47.702;9.826;2022-11-12T09:20:21;7.00;99.90
20141;DHT22;10231;47.702;9.826;2022-11-12T09:22:46;7.00;99.90
20141;DHT22;10231;47.702;9.826;2022-11-12T09:25:12;7.00;99.90
20141;DHT22;10231;47.702;9.826;2022-11-12T09:27:37;7.00;99.90
20141;DHT22;10231;47.702;9.826;2022-11-12T09:30:03;7.10;99.90
20141;DHT22;10231;47.702;9.826;2022-11-12T09:32:31;7.20;99.90
20141;DHT22;10231;47.702;9.826;2022-11-12T09:34:56;7.20;99.90
20141;DHT22;10231;47.702;9.826;2022-11-12T09:37:22;7.20;99.90
20141;DHT22;10231;47.702;9.826;2022-11-12T09:39:47;7.20;99.90
20141;DHT22;10231;47.702;9.826;2022-11-12T09:42:17;7.10;99.90
20141;DHT22;10231;47.702;9.826;2022-11-12T09:44:52;7.10;99.90
20141;DHT22;10231;47.702;9.826;2022-11-12T09:47:24;7.20;99.90
20141;DHT22;10231;47.702;9.826;2022-11-12T09:52:25;7.30;99.90
20141;DHT22;10231;47.702;9.826;2022-11-12T09:57:42;7.30;99.90
20141;DHT22;10231;47.702;9.826;2022-11-12T10:00:16;7.30;99.90
20141;DHT22;10231;47.702;9.826;2022-11-12T10:03:45;7.40;99.90
20141;DHT22;10231;47.702;9.826;2022-11-12T10:06:18;7.50;99.90
20141;DHT22;10231;47.702;9.826;2022-11-12T10:11:47;7.60;99.90
20141;DHT22;10231;47.702;9.826;2022-11-12T10:17:25;7.60;99.90
20141;DHT22;10231;47.702;9.826;2022-11-12T10:20:05;7.60;99.90
20141;DHT22;10231;47.702;9.826;2022-11-12T10:25:28;7.80;99.90
20141;DHT22;10231;47.702;9.826;2022-11-12T10:27:56;7.70;99.90
20141;DHT22;10231;47.702;9.826;2022-11-12T10:30:23;7.70;99.90
20141;DHT22;10231;47.702;9.826;2022-11-12T10:32:50;7.70;99.90
20141;DHT22;10231;47.702;9.826;2022-11-12T10:35:19;7.70;99.90
20141;DHT22;10231;47.702;9.826;2022-11-12T10:42:57;7.90;99.90
20141;DHT22;10231;47.702;9.826;2022-11-12T10:45:24;8.00;99.90
20141;DHT22;10231;47.702;9.826;2022-11-12T10:47:50;7.90;99.90
20141;DHT22;10231;47.702;9.826;2022-11-12T10:50:28;7.90;99.90
20141;DHT22;10231;47.702;9.826;2022-11-12T10:53:03;7.90;99.90
20141;DHT22;10231;47.702;9.826;2022-11-12T10:55:36;8.00;99.90
20141;DHT22;10231;47.702;9.826;2022-11-12T11:00:35;7.90;99.90
20141;DHT22;10231;47.702;9.826;2022-11-12T11:03:04;7.90;99.90
20141;DHT22;10231;47.702;9.826;2022-11-12T11:07:58;8.20;99.90
20141;DHT22;10231;47.702;9.826;2022-11-12T11:10:32;8.20;99.90
20141;DHT22;10231;47.702;9.826;2022-11-12T11:16:03;8.30;99.90
20141;DHT22;10231;47.702;9.826;2022-11-12T11:18:31;8.30;99.90
20141;DHT22;10231;47.702;9.826;2022-11-12T11:23:44;8.40;99.90
20141;DHT22;10231;47.702;9.826;2022-11-12T11:26:30;8.50;99.90
20141;DHT22;10231;47.702;9.826;2022-11-12T11:32:25;8.70;99.90
20141;DHT22;10231;47.702;9.826;2022-11-12T11:38:14;8.90;99.90
20141;DHT22;10231;47.702;9.826;2022-11-12T11:40:55;9.00;99.90
20141;DHT22;10231;47.702;9.826;2022-11-12T11:46:42;9.00;99.90
20141;DHT22;10231;47.702;9.826;2022-11-12T11:51:54;9.10;99.90
20141;DHT22;10231;47.702;9.826;2022-11-12T11:54:34;9.20;99.90
20141;DHT22;10231;47.702;9.826;2022-11-12T11:57:11;9.30;99.90
20141;DHT22;10231;47.702;9.826;2022-11-12T12:02:38;9.30;99.90
20141;DHT22;10231;47.702;9.826;2022-11-12T12:08:04;9.30;99.90
20141;DHT22;10231;47.702;9.826;2022-11-12T12:21:35;9.70;99.90
20141;DHT22;10231;47.702;9.826;2022-11-12T12:24:44;9.70;99.90
20141;DHT22;10231;47.702;9.826;2022-11-12T12:27:20;9.80;99.90
20141;DHT22;10231;47.702;9.826;2022-11-12T12:30:05;9.80;99.90
20141;DHT22;10231;47.702;9.826;2022-11-12T12:32:45;9.80;99.90
20141;DHT22;10231;47.702;9.826;2022-11-12T12:35:21;9.90;99.90
20141;DHT22;10231;47.702;9.826;2022-11-12T12:38:14;10.00;99.90
20141;DHT22;10231;47.702;9.826;2022-11-12T12:40:48;10.00;99.90
20141;DHT22;10231;47.702;9.826;2022-11-12T12:43:31;10.00;99.90
20141;DHT22;10231;47.702;9.826;2022-11-12T12:45:57;10.00;99.90
20141;DHT22;10231;47.702;9.826;2022-11-12T12:48:35;10.00;99.90
20141;DHT22;10231;47.702;9.826;2022-11-12T12:51:02;10.00;99.90
20141;DHT22;10231;47.702;9.826;2022-11-12T12:55:55;10.00;99.90
20141;DHT22;10231;47.702;9.826;2022-11-12T12:58:33;10.00;99.90
20141;DHT22;10231;47.702;9.826;2022-11-12T13:06:51;10.10;99.90
20141;DHT22;10231;47.702;9.826;2022-11-12T13:25:04;10.00;99.90
20141;DHT22;10231;47.702;9.826;2022-11-12T13:30:08;10.00;99.90
20141;DHT22;10231;47.702;9.826;2022-11-12T13:32:40;10.00;99.90
20141;DHT22;10231;47.702;9.826;2022-11-12T13:43:39;10.10;99.90
20141;DHT22;10231;47.702;9.826;2022-11-12T13:49:01;10.00;99.90
20141;DHT22;10231;47.702;9.826;2022-11-12T13:53:56;9.90;99.90
20141;DHT22;10231;47.702;9.826;2022-11-12T13:56:33;10.00;99.90
20141;DHT22;10231;47.702;9.826;2022-11-12T13:59:16;10.00;99.90
20141;DHT22;10231;47.702;9.826;2022-11-12T14:05:15;10.10;99.90
20141;DHT22;10231;47.702;9.826;2022-11-12T14:13:28;10.20;99.90
20141;DHT22;10231;47.702;9.826;2022-11-12T14:21:15;10.00;99.90
20141;DHT22;10231;47.702;9.826;2022-11-12T14:23:46;9.90;99.90
20141;DHT22;10231;47.702;9.826;2022-11-12T14:26:38;9.90;99.90
20141;DHT22;10231;47.702;9.826;2022-11-12T14:29:04;9.80;99.90
20141;DHT22;10231;47.702;9.826;2022-11-12T14:31:30;9.70;99.90
20141;DHT22;10231;47.702;9.826;2022-11-12T14:33:56;9.70;99.90
20141;DHT22;10231;47.702;9.826;2022-11-12T14:36:21;9.70;99.90
20141;DHT22;10231;47.702;9.826;2022-11-12T14:38:53;9.70;99.90
20141;DHT22;10231;47.702;9.826;2022-11-12T14:41:23;9.80;99.90
20141;DHT22;10231;47.702;9.826;2022-11-12T14:43:51;9.80;99.90
20141;DHT22;10231;47.702;9.826;2022-11-12T14:46:42;9.70;99.90
20141;DHT22;10231;47.702;9.826;2022-11-12T14:55:03;9.60;99.90
20141;DHT22;10231;47.702;9.826;2022-11-12T14:57:27;9.60;99.90
20141;DHT22;10231;47.702;9.826;2022-11-12T14:59:53;9.60;99.90
20141;DHT22;10231;47.702;9.826;2022-11-12T15:02:29;9.50;99.90
20141;DHT22;10231;47.702;9.826;2022-11-12T15:05:10;9.50;99.90
20141;DHT22;10231;47.702;9.826;2022-11-12T15:10:33;9.40;99.90
20141;DHT22;10231;47.702;9.826;2022-11-12T15:13:14;9.30;99.90
20141;DHT22;10231;47.702;9.826;2022-11-12T15:15:51;9.20;99.90
20141;DHT22;10231;47.702;9.826;2022-11-12T15:18:20;9.20;99.90
20141;DHT22;10231;47.702;9.826;2022-11-12T15:21:12;9.20;99.90
20141;DHT22;10231;47.702;9.826;2022-11-12T15:23:50;9.20;99.90
20141;DHT22;10231;47.702;9.826;2022-11-12T15:26:25;9.10;99.90
20141;DHT22;10231;47.702;9.826;2022-11-12T15:29:01;9.10;99.90
20141;DHT22;10231;47.702;9.826;2022-11-12T15:31:28;9.10;99.90
20141;DHT22;10231;47.702;9.826;2022-11-12T15:33:53;9.10;99.90
20141;DHT22;10231;47.702;9.826;2022-11-12T15:36:21;9.10;99.90
20141;DHT22;10231;47.702;9.826;2022-11-12T15:38:50;9.10;99.90
20141;DHT22;10231;47.702;9.826;2022-11-12T15:41:29;9.00;99.90
20141;DHT22;10231;47.702;9.826;2022-11-12T15:43:58;9.00;99.90
20141;DHT22;10231;47.702;9.826;2022-11-12T15:46:24;9.00;99.90
20141;DHT22;10231;47.702;9.826;2022-11-12T15:48:50;9.00;99.90
20141;DHT22;10231;47.702;9.826;2022-11-12T15:51:16;8.90;99.90
20141;DHT22;10231;47.702;9.826;2022-11-12T15:53:41;8.80;99.90
20141;DHT22;10231;47.702;9.826;2022-11-12T15:56:14;8.80;99.90
20141;DHT22;10231;47.702;9.826;2022-11-12T15:58:40;8.80;99.90
20141;DHT22;10231;47.702;9.826;2022-11-12T16:01:05;8.80;99.90
20141;DHT22;10231;47.702;9.826;2022-11-12T16:03:31;8.70;99.90
20141;DHT22;10231;47.702;9.826;2022-11-12T16:05:57;8.80;99.90
20141;DHT22;10231;47.702;9.826;2022-11-12T16:08:22;8.80;99.90
20141;DHT22;10231;47.702;9.826;2022-11-12T16:10:48;8.70;99.90
20141;DHT22;10231;47.702;9.826;2022-11-12T16:13:22;8.70;99.90
20141;DHT22;10231;47.702;9.826;2022-11-12T16:15:50;8.70;99.90
20141;DHT22;10231;47.702;9.826;2022-11-12T16:18:16;8.70;99.90
20141;DHT22;10231;47.702;9.826;2022-11-12T16:20:42;8.60;99.90
20141;DHT22;10231;47.702;9.826;2022-11-12T16:23:07;8.60;99.90
20141;DHT22;10231;47.702;9.826;2022-11-12T16:25:35;8.60;99.90
20141;DHT22;10231;47.702;9.826;2022-11-12T16:28:01;8.60;99.90
20141;DHT22;10231;47.702;9.826;2022-11-12T16:30:29;8.60;99.90
20141;DHT22;10231;47.702;9.826;2022-11-12T16:32:56;8.60;99.90
20141;DHT22;10231;47.702;9.826;2022-11-12T16:35:22;8.50;99.90
20141;DHT22;10231;47.702;9.826;2022-11-12T16:37:48;8.50;99.90
20141;DHT22;10231;47.702;9.826;2022-11-12T16:40:25;8.50;99.90
20141;DHT22;10231;47.702;9.826;2022-11-12T16:42:51;8.60;99.90
20141;DHT22;10231;47.702;9.826;2022-11-12T16:45:19;8.60;99.90
20141;DHT22;10231;47.702;9.826;2022-11-12T16:47:49;8.50;99.90
20141;DHT22;10231;47.702;9.826;2022-11-12T16:50:17;8.40;99.90
20141;DHT22;10231;47.702;9.826;2022-11-12T16:52:43;8.40;99.90
20141;DHT22;10231;47.702;9.826;2022-11-12T16:55:09;8.40;99.90
20141;DHT22;10231;47.702;9.826;2022-11-12T16:57:35;8.30;99.90
20141;DHT22;10231;47.702;9.826;2022-11-12T17:00:01;8.30;99.90
20141;DHT22;10231;47.702;9.826;2022-11-12T17:02:27;8.40;99.90
20141;DHT22;10231;47.702;9.826;2022-11-12T17:04:52;8.30;99.90
20141;DHT22;10231;47.702;9.826;2022-11-12T17:07:18;8.30;99.90
20141;DHT22;10231;47.702;9.826;2022-11-12T17:09:43;8.30;99.90
20141;DHT22;10231;47.702;9.826;2022-11-12T17:12:09;8.30;99.90
20141;DHT22;10231;47.702;9.826;2022-11-12T17:14:34;8.30;99.90
20141;DHT22;10231;47.702;9.826;2022-11-12T17:17:00;8.30;99.90
20141;DHT22;10231;47.702;9.826;2022-11-12T17:19:25;8.30;99.90
20141;DHT22;10231;47.702;9.826;2022-11-12T17:21:51;8.30;99.90
20141;DHT22;10231;47.702;9.826;2022-11-12T17:24:17;8.30;99.90
20141;DHT22;10231;47.702;9.826;2022-11-12T17:26:43;8.20;99.90
20141;DHT22;10231;47.702;9.826;2022-11-12T17:29:09;8.30;99.90
20141;DHT22;10231;47.702;9.826;2022-11-12T17:31:35;8.20;99.90
20141;DHT22;10231;47.702;9.826;2022-11-12T17:34:03;8.20;99.90
20141;DHT22;10231;47.702;9.826;2022-11-12T17:36:29;8.20;99.90
20141;DHT22;10231;47.702;9.826;2022-11-12T17:38:56;8.20;99.90
20141;DHT22;10231;47.702;9.826;2022-11-12T17:41:23;8.20;99.90
20141;DHT22;10231;47.702;9.826;2022-11-12T17:43:56;8.20;99.90
20141;DHT22;10231;47.702;9.826;2022-11-12T17:46:22;8.30;99.90
20141;DHT22;10231;47.702;9.826;2022-11-12T17:48:48;8.20;99.90
20141;DHT22;10231;47.702;9.826;2022-11-12T17:51:19;8.20;99.90
20141;DHT22;10231;47.702;9.826;2022-11-12T17:53:46;8.10;99.90
20141;DHT22;10231;47.702;9.826;2022-11-12T17:56:14;8.10;99.90
20141;DHT22;10231;47.702;9.826;2022-11-12T17:58:40;8.10;99.90
20141;DHT22;10231;47.702;9.826;2022-11-12T18:01:14;8.10;99.90